sensor_id;sensor_type;location;lat;lon;timestamp;temperature;humidity
1415;DHT22;702;49.466;11.086;2023-07-13T00:00:23;21.80;59.60
1415;DHT22;702;49.466;11.086;2023-07-13T00:02:50;21.90;59.50
1415;DHT22;702;49.466;11.086;2023-07-13T00:05:21;21.80;59.70
1415;DHT22;702;49.466;11.086;2023-07-13T00:07:49;21.70;59.80
1415;DHT22;702;49.466;11.086;2023-07-13T00:10:18;21.70;59.70
1415;DHT22;702;49.466;11.086;2023-07-13T00:12:45;21.70;59.90
1415;DHT22;702;49.466;11.086;2023-07-13T00:15:14;21.60;60.20
1415;DHT22;702;49.466;11.086;2023-07-13T00:17:43;21.50;60.30
1415;DHT22;702;49.466;11.086;2023-07-13T00:20:11;21.40;60.30
1415;DHT22;702;49.466;11.086;2023-07-13T00:22:40;21.40;60.40
1415;DHT22;702;49.466;11.086;2023-07-13T00:25:08;21.40;60.50
1415;DHT22;702;49.466;11.086;2023-07-13T00:27:37;21.40;60.50
1415;DHT22;702;49.466;11.086;2023-07-13T00:30:06;21.30;60.50
1415;DHT22;702;49.466;11.086;2023-07-13T00:32:34;21.20;60.50
1415;DHT22;702;49.466;11.086;2023-07-13T00:35:02;21.10;60.90
1415;DHT22;702;49.466;11.086;2023-07-13T00:37:30;21.10;61.00
1415;DHT22;702;49.466;11.086;2023-07-13T00:39:59;21.00;61.20
1415;DHT22;702;49.466;11.086;2023-07-13T00:42:26;21.10;61.00
1415;DHT22;702;49.466;11.086;2023-07-13T00:48:21;21.00;61.20
1415;DHT22;702;49.466;11.086;2023-07-13T00:50:53;21.00;61.20
1415;DHT22;702;49.466;11.086;2023-07-13T00:53:24;21.10;61.50
1415;DHT22;702;49.466;11.086;2023-07-13T00:55:56;21.20;61.20
1415;DHT22;702;49.466;11.086;2023-07-13T00:58:24;21.10;61.10
1415;DHT22;702;49.466;11.086;2023-07-13T01:00:52;21.00;61.20
1415;DHT22;702;49.466;11.086;2023-07-13T01:03:20;20.90;61.20
1415;DHT22;702;49.466;11.086;2023-07-13T01:05:48;21.00;61.00
1415;DHT22;702;49.466;11.086;2023-07-13T01:08:16;20.90;60.90
1415;DHT22;702;49.466;11.086;2023-07-13T01:10:51;20.80;60.80
1415;DHT22;702;49.466;11.086;2023-07-13T01:13:20;20.80;60.60
1415;DHT22;702;49.466;11.086;2023-07-13T01:15:49;20.70;60.70
1415;DHT22;702;49.466;11.086;2023-07-13T01:18:20;20.60;61.00
1415;DHT22;702;49.466;11.086;2023-07-13T01:20:55;20.60;61.30
1415;DHT22;702;49.466;11.086;2023-07-13T01:23:25;20.50;61.00
1415;DHT22;702;49.466;11.086;2023-07-13T01:25:53;20.50;61.00
1415;DHT22;702;49.466;11.086;2023-07-13T01:28:33;20.40;61.40
1415;DHT22;702;49.466;11.086;2023-07-13T01:31:02;20.30;60.90
1415;DHT22;702;49.466;11.086;2023-07-13T01:33:30;20.20;61.30
1415;DHT22;702;49.466;11.086;2023-07-13T01:35:59;20.10;61.80
1415;DHT22;702;49.466;11.086;2023-07-13T01:38:28;20.10;62.60
1415;DHT22;702;49.466;11.086;2023-07-13T01:40:55;20.10;62.40
1415;DHT22;702;49.466;11.086;2023-07-13T01:43:22;20.10;62.70
1415;DHT22;702;49.466;11.086;2023-07-13T01:45:49;20.00;62.70
1415;DHT22;702;49.466;11.086;2023-07-13T01:48:17;20.00;62.10
1415;DHT22;702;49.466;11.086;2023-07-13T01:50:44;19.90;62.20
1415;DHT22;702;49.466;11.086;2023-07-13T01:53:13;19.90;61.90
1415;DHT22;702;49.466;11.086;2023-07-13T01:55:41;19.80;62.20
1415;DHT22;702;49.466;11.086;2023-07-13T01:58:09;19.80;62.50
1415;DHT22;702;49.466;11.086;2023-07-13T02:00:36;19.60;62.50
1415;DHT22;702;49.466;11.086;2023-07-13T02:03:04;19.60;62.40
1415;DHT22;702;49.466;11.086;2023-07-13T02:05:31;19.50;62.50
1415;DHT22;702;49.466;11.086;2023-07-13T02:07:58;19.50;62.50
1415;DHT22;702;49.466;11.086;2023-07-13T02:10:27;19.60;62.50
1415;DHT22;702;49.466;11.086;2023-07-13T02:12:54;19.50;62.50
1415;DHT22;702;49.466;11.086;2023-07-13T02:15:22;19.50;62.40
1415;DHT22;702;49.466;11.086;2023-07-13T02:17:49;19.50;62.40
1415;DHT22;702;49.466;11.086;2023-07-13T02:20:16;19.50;62.50
1415;DHT22;702;49.466;11.086;2023-07-13T02:22:44;19.50;62.60
1415;DHT22;702;49.466;11.086;2023-07-13T02:25:11;19.40;62.90
1415;DHT22;702;49.466;11.086;2023-07-13T02:27:39;19.40;63.00
1415;DHT22;702;49.466;11.086;2023-07-13T02:30:08;19.30;63.00
1415;DHT22;702;49.466;11.086;2023-07-13T02:32:35;19.30;62.90
1415;DHT22;702;49.466;11.086;2023-07-13T02:35:03;19.20;63.10
1415;DHT22;702;49.466;11.086;2023-07-13T02:37:31;19.20;62.80
1415;DHT22;702;49.466;11.086;2023-07-13T02:39:58;19.20;63.20
1415;DHT22;702;49.466;11.086;2023-07-13T02:42:26;19.10;63.10
1415;DHT22;702;49.466;11.086;2023-07-13T02:44:54;19.00;63.20
1415;DHT22;702;49.466;11.086;2023-07-13T02:47:22;18.90;63.50
1415;DHT22;702;49.466;11.086;2023-07-13T02:49:49;18.90;63.50
1415;DHT22;702;49.466;11.086;2023-07-13T02:52:17;18.80;63.50
1415;DHT22;702;49.466;11.086;2023-07-13T02:54:44;18.80;63.90
1415;DHT22;702;49.466;11.086;2023-07-13T02:57:11;18.70;64.10
1415;DHT22;702;49.466;11.086;2023-07-13T02:59:38;18.70;64.20
1415;DHT22;702;49.466;11.086;2023-07-13T03:02:07;18.60;64.30
1415;DHT22;702;49.466;11.086;2023-07-13T03:04:35;18.60;64.50
1415;DHT22;702;49.466;11.086;2023-07-13T03:07:03;18.60;64.50
1415;DHT22;702;49.466;11.086;2023-07-13T03:09:31;18.50;64.40
1415;DHT22;702;49.466;11.086;2023-07-13T03:12:00;18.50;64.50
1415;DHT22;702;49.466;11.086;2023-07-13T03:14:28;18.40;64.70
1415;DHT22;702;49.466;11.086;2023-07-13T03:16:55;18.40;64.80
1415;DHT22;702;49.466;11.086;2023-07-13T03:19:24;18.30;64.70
1415;DHT22;702;49.466;11.086;2023-07-13T03:21:51;18.20;64.60
1415;DHT22;702;49.466;11.086;2023-07-13T03:24:19;18.20;64.70
1415;DHT22;702;49.466;11.086;2023-07-13T03:26:49;18.20;64.50
1415;DHT22;702;49.466;11.086;2023-07-13T03:29:16;18.20;64.50
1415;DHT22;702;49.466;11.086;2023-07-13T03:31:43;18.20;64.60
1415;DHT22;702;49.466;11.086;2023-07-13T03:34:10;18.20;64.60
1415;DHT22;702;49.466;11.086;2023-07-13T03:36:39;18.20;64.40
1415;DHT22;702;49.466;11.086;2023-07-13T03:39:08;18.10;64.40
1415;DHT22;702;49.466;11.086;2023-07-13T03:41:36;18.10;64.50
1415;DHT22;702;49.466;11.086;2023-07-13T03:44:04;18.10;64.50
1415;DHT22;702;49.466;11.086;2023-07-13T03:46:31;18.10;64.50
1415;DHT22;702;49.466;11.086;2023-07-13T03:48:59;18.10;64.40
1415;DHT22;702;49.466;11.086;2023-07-13T03:51:26;18.10;64.10
1415;DHT22;702;49.466;11.086;2023-07-13T03:53:55;18.10;64.10
1415;DHT22;702;49.466;11.086;2023-07-13T03:56:22;18.10;64.30
1415;DHT22;702;49.466;11.086;2023-07-13T03:58:50;18.10;64.00
1415;DHT22;702;49.466;11.086;2023-07-13T04:01:19;18.10;63.70
1415;DHT22;702;49.466;11.086;2023-07-13T04:03:48;18.10;63.70
1415;DHT22;702;49.466;11.086;2023-07-13T04:06:18;18.10;63.60
1415;DHT22;702;49.466;11.086;2023-07-13T04:08:48;18.10;63.40
1415;DHT22;702;49.466;11.086;2023-07-13T04:11:19;18.20;63.80
1415;DHT22;702;49.466;11.086;2023-07-13T04:13:47;18.30;63.20
1415;DHT22;702;49.466;11.086;2023-07-13T04:16:15;18.40;62.90
1415;DHT22;702;49.466;11.086;2023-07-13T04:18:43;18.40;62.70
1415;DHT22;702;49.466;11.086;2023-07-13T04:21:11;18.50;62.50
1415;DHT22;702;49.466;11.086;2023-07-13T04:23:39;18.50;62.50
1415;DHT22;702;49.466;11.086;2023-07-13T04:26:07;18.60;62.30
1415;DHT22;702;49.466;11.086;2023-07-13T04:28:36;18.60;62.10
1415;DHT22;702;49.466;11.086;2023-07-13T04:31:03;18.70;62.00
1415;DHT22;702;49.466;11.086;2023-07-13T04:33:30;18.70;62.00
1415;DHT22;702;49.466;11.086;2023-07-13T04:35:58;19.00;61.70
1415;DHT22;702;49.466;11.086;2023-07-13T04:38:28;19.40;61.00
1415;DHT22;702;49.466;11.086;2023-07-13T04:40:59;19.50;60.70
1415;DHT22;702;49.466;11.086;2023-07-13T04:43:28;19.70;60.70
1415;DHT22;702;49.466;11.086;2023-07-13T04:46:02;19.70;60.40
1415;DHT22;702;49.466;11.086;2023-07-13T04:48:32;19.50;60.30
1415;DHT22;702;49.466;11.086;2023-07-13T04:51:00;19.40;60.20
1415;DHT22;702;49.466;11.086;2023-07-13T04:53:28;19.50;60.20
1415;DHT22;702;49.466;11.086;2023-07-13T04:55:56;19.60;60.00
1415;DHT22;702;49.466;11.086;2023-07-13T04:58:24;20.00;59.60
1415;DHT22;702;49.466;11.086;2023-07-13T05:00:51;20.40;59.00
1415;DHT22;702;49.466;11.086;2023-07-13T05:03:20;21.30;58.30
1415;DHT22;702;49.466;11.086;2023-07-13T05:05:59;21.50;57.50
1415;DHT22;702;49.466;11.086;2023-07-13T05:08:27;21.20;57.30
1415;DHT22;702;49.466;11.086;2023-07-13T05:10:54;20.70;57.70
1415;DHT22;702;49.466;11.086;2023-07-13T05:13:22;20.50;58.10
1415;DHT22;702;49.466;11.086;2023-07-13T05:15:55;20.90;57.70
1415;DHT22;702;49.466;11.086;2023-07-13T05:18:24;21.30;57.30
1415;DHT22;702;49.466;11.086;2023-07-13T05:20:57;21.10;57.30
1415;DHT22;702;49.466;11.086;2023-07-13T05:23:25;20.80;57.20
1415;DHT22;702;49.466;11.086;2023-07-13T05:25:53;20.70;57.30
1415;DHT22;702;49.466;11.086;2023-07-13T05:28:21;20.40;57.70
1415;DHT22;702;49.466;11.086;2023-07-13T05:30:49;21.40;57.20
1415;DHT22;702;49.466;11.086;2023-07-13T05:33:17;22.10;56.00
1415;DHT22;702;49.466;11.086;2023-07-13T05:35:46;22.40;55.90
1415;DHT22;702;49.466;11.086;2023-07-13T05:38:13;22.90;55.10
1415;DHT22;702;49.466;11.086;2023-07-13T05:40:42;23.20;54.60
1415;DHT22;702;49.466;11.086;2023-07-13T05:43:10;23.40;54.20
1415;DHT22;702;49.466;11.086;2023-07-13T05:45:37;24.00;53.70
1415;DHT22;702;49.466;11.086;2023-07-13T05:48:05;23.80;53.60
1415;DHT22;702;49.466;11.086;2023-07-13T05:50:32;23.40;53.20
1415;DHT22;702;49.466;11.086;2023-07-13T05:53:01;22.60;54.10
1415;DHT22;702;49.466;11.086;2023-07-13T05:55:28;21.70;54.40
1415;DHT22;702;49.466;11.086;2023-07-13T05:57:56;21.20;55.00
1415;DHT22;702;49.466;11.086;2023-07-13T06:00:23;20.80;55.50
1415;DHT22;702;49.466;11.086;2023-07-13T06:02:51;21.10;55.80
1415;DHT22;702;49.466;11.086;2023-07-13T06:05:18;21.80;55.30
1415;DHT22;702;49.466;11.086;2023-07-13T06:07:45;21.50;55.10
1415;DHT22;702;49.466;11.086;2023-07-13T06:10:14;21.90;55.00
1415;DHT22;702;49.466;11.086;2023-07-13T06:12:41;22.50;54.60
1415;DHT22;702;49.466;11.086;2023-07-13T06:15:09;22.50;54.00
1415;DHT22;702;49.466;11.086;2023-07-13T06:17:37;21.80;53.90
1415;DHT22;702;49.466;11.086;2023-07-13T06:20:05;20.80;54.70
1415;DHT22;702;49.466;11.086;2023-07-13T06:22:33;20.20;55.60
1415;DHT22;702;49.466;11.086;2023-07-13T06:25:01;20.00;56.40
1415;DHT22;702;49.466;11.086;2023-07-13T06:27:30;20.20;56.30
1415;DHT22;702;49.466;11.086;2023-07-13T06:29:57;20.90;56.00
1415;DHT22;702;49.466;11.086;2023-07-13T06:32:24;21.00;55.40
1415;DHT22;702;49.466;11.086;2023-07-13T06:34:51;20.90;55.60
1415;DHT22;702;49.466;11.086;2023-07-13T06:37:19;20.70;55.90
1415;DHT22;702;49.466;11.086;2023-07-13T06:39:46;20.60;56.20
1415;DHT22;702;49.466;11.086;2023-07-13T06:42:15;20.70;55.70
1415;DHT22;702;49.466;11.086;2023-07-13T06:44:44;20.60;55.70
1415;DHT22;702;49.466;11.086;2023-07-13T06:47:12;20.60;55.70
1415;DHT22;702;49.466;11.086;2023-07-13T06:49:40;20.60;55.80
1415;DHT22;702;49.466;11.086;2023-07-13T06:52:07;20.50;55.80
1415;DHT22;702;49.466;11.086;2023-07-13T06:54:35;20.20;56.00
1415;DHT22;702;49.466;11.086;2023-07-13T06:57:04;20.30;56.20
1415;DHT22;702;49.466;11.086;2023-07-13T06:59:33;20.50;56.30
1415;DHT22;702;49.466;11.086;2023-07-13T07:02:01;20.80;55.80
1415;DHT22;702;49.466;11.086;2023-07-13T07:04:29;20.70;56.10
1415;DHT22;702;49.466;11.086;2023-07-13T07:06:56;20.90;56.10
1415;DHT22;702;49.466;11.086;2023-07-13T07:09:23;20.90;55.90
1415;DHT22;702;49.466;11.086;2023-07-13T07:11:50;20.90;56.00
1415;DHT22;702;49.466;11.086;2023-07-13T07:14:18;21.30;55.80
1415;DHT22;702;49.466;11.086;2023-07-13T07:16:45;21.40;55.60
1415;DHT22;702;49.466;11.086;2023-07-13T07:19:13;21.40;55.10
1415;DHT22;702;49.466;11.086;2023-07-13T07:21:40;21.20;55.00
1415;DHT22;702;49.466;11.086;2023-07-13T07:24:07;21.20;55.40
1415;DHT22;702;49.466;11.086;2023-07-13T07:26:35;21.10;55.40
1415;DHT22;702;49.466;11.086;2023-07-13T07:29:02;21.30;55.50
1415;DHT22;702;49.466;11.086;2023-07-13T07:31:30;21.50;55.30
1415;DHT22;702;49.466;11.086;2023-07-13T07:33:57;21.80;55.40
1415;DHT22;702;49.466;11.086;2023-07-13T07:36:26;21.90;55.00
1415;DHT22;702;49.466;11.086;2023-07-13T07:38:53;21.80;54.70
1415;DHT22;702;49.466;11.086;2023-07-13T07:41:20;21.90;54.90
1415;DHT22;702;49.466;11.086;2023-07-13T07:43:48;22.10;54.50
1415;DHT22;702;49.466;11.086;2023-07-13T07:46:15;21.90;54.00
1415;DHT22;702;49.466;11.086;2023-07-13T07:48:43;21.50;54.30
1415;DHT22;702;49.466;11.086;2023-07-13T07:51:10;21.40;54.20
1415;DHT22;702;49.466;11.086;2023-07-13T07:53:38;21.50;54.40
1415;DHT22;702;49.466;11.086;2023-07-13T07:56:06;21.50;54.40
1415;DHT22;702;49.466;11.086;2023-07-13T07:58:33;21.80;54.00
1415;DHT22;702;49.466;11.086;2023-07-13T08:01:04;21.70;53.80
1415;DHT22;702;49.466;11.086;2023-07-13T08:03:32;21.70;53.70
1415;DHT22;702;49.466;11.086;2023-07-13T08:05:59;21.80;53.70
1415;DHT22;702;49.466;11.086;2023-07-13T08:08:27;21.90;53.20
1415;DHT22;702;49.466;11.086;2023-07-13T08:10:55;21.90;53.20
1415;DHT22;702;49.466;11.086;2023-07-13T08:13:23;22.30;53.40
1415;DHT22;702;49.466;11.086;2023-07-13T08:15:50;22.30;53.10
1415;DHT22;702;49.466;11.086;2023-07-13T08:18:17;22.30;52.80
1415;DHT22;702;49.466;11.086;2023-07-13T08:20:45;22.40;52.10
1415;DHT22;702;49.466;11.086;2023-07-13T08:23:12;22.20;51.80
1415;DHT22;702;49.466;11.086;2023-07-13T08:25:39;22.10;50.90
1415;DHT22;702;49.466;11.086;2023-07-13T08:28:08;22.20;51.20
1415;DHT22;702;49.466;11.086;2023-07-13T08:30:35;22.20;51.40
1415;DHT22;702;49.466;11.086;2023-07-13T08:33:03;22.30;51.00
1415;DHT22;702;49.466;11.086;2023-07-13T08:35:30;22.30;50.40
1415;DHT22;702;49.466;11.086;2023-07-13T08:37:57;22.30;50.50
1415;DHT22;702;49.466;11.086;2023-07-13T08:40:27;22.40;49.80
1415;DHT22;702;49.466;11.086;2023-07-13T08:42:55;22.50;48.70
1415;DHT22;702;49.466;11.086;2023-07-13T08:45:30;22.30;48.90
1415;DHT22;702;49.466;11.086;2023-07-13T08:48:13;22.30;47.50
1415;DHT22;702;49.466;11.086;2023-07-13T08:50:49;22.30;46.70
1415;DHT22;702;49.466;11.086;2023-07-13T08:53:19;22.20;46.50
1415;DHT22;702;49.466;11.086;2023-07-13T08:55:52;22.30;47.30
1415;DHT22;702;49.466;11.086;2023-07-13T08:58:25;22.30;47.50
1415;DHT22;702;49.466;11.086;2023-07-13T09:01:10;22.40;47.90
1415;DHT22;702;49.466;11.086;2023-07-13T09:03:52;22.50;48.10
1415;DHT22;702;49.466;11.086;2023-07-13T09:06:31;22.60;47.20
1415;DHT22;702;49.466;11.086;2023-07-13T09:09:07;22.40;47.20
1415;DHT22;702;49.466;11.086;2023-07-13T09:11:45;22.30;47.50
1415;DHT22;702;49.466;11.086;2023-07-13T09:14:35;22.30;47.20
1415;DHT22;702;49.466;11.086;2023-07-13T09:17:13;22.50;48.10
1415;DHT22;702;49.466;11.086;2023-07-13T09:19:46;22.80;48.20
1415;DHT22;702;49.466;11.086;2023-07-13T09:22:19;22.60;47.70
1415;DHT22;702;49.466;11.086;2023-07-13T09:24:54;22.60;48.00
1415;DHT22;702;49.466;11.086;2023-07-13T09:27:29;22.90;47.80
1415;DHT22;702;49.466;11.086;2023-07-13T09:30:04;23.00;47.70
1415;DHT22;702;49.466;11.086;2023-07-13T09:32:50;23.10;47.20
1415;DHT22;702;49.466;11.086;2023-07-13T09:35:21;23.00;47.40
1415;DHT22;702;49.466;11.086;2023-07-13T09:37:58;22.80;47.10
1415;DHT22;702;49.466;11.086;2023-07-13T09:40:35;22.80;47.00
1415;DHT22;702;49.466;11.086;2023-07-13T09:43:08;23.00;47.50
1415;DHT22;702;49.466;11.086;2023-07-13T09:45:37;23.10;46.00
1415;DHT22;702;49.466;11.086;2023-07-13T09:48:10;23.30;45.90
1415;DHT22;702;49.466;11.086;2023-07-13T09:50:39;23.40;45.30
1415;DHT22;702;49.466;11.086;2023-07-13T09:53:12;23.50;45.40
1415;DHT22;702;49.466;11.086;2023-07-13T09:55:41;23.30;44.80
1415;DHT22;702;49.466;11.086;2023-07-13T09:58:12;23.30;44.10
1415;DHT22;702;49.466;11.086;2023-07-13T10:00:42;23.10;43.70
1415;DHT22;702;49.466;11.086;2023-07-13T10:03:18;23.10;44.00
1415;DHT22;702;49.466;11.086;2023-07-13T10:05:49;23.00;44.00
1415;DHT22;702;49.466;11.086;2023-07-13T10:08:24;22.90;44.40
1415;DHT22;702;49.466;11.086;2023-07-13T10:10:57;23.00;44.80
1415;DHT22;702;49.466;11.086;2023-07-13T10:13:32;23.40;44.70
1415;DHT22;702;49.466;11.086;2023-07-13T10:16:04;23.40;44.10
1415;DHT22;702;49.466;11.086;2023-07-13T10:18:41;23.50;44.00
1415;DHT22;702;49.466;11.086;2023-07-13T10:21:14;23.50;44.20
1415;DHT22;702;49.466;11.086;2023-07-13T10:23:43;23.50;44.10
1415;DHT22;702;49.466;11.086;2023-07-13T10:26:16;23.40;44.50
1415;DHT22;702;49.466;11.086;2023-07-13T10:28:51;23.30;44.20
1415;DHT22;702;49.466;11.086;2023-07-13T10:31:21;23.40;44.70
1415;DHT22;702;49.466;11.086;2023-07-13T10:33:50;23.30;44.20
1415;DHT22;702;49.466;11.086;2023-07-13T10:36:31;23.30;44.50
1415;DHT22;702;49.466;11.086;2023-07-13T10:39:03;23.40;44.40
1415;DHT22;702;49.466;11.086;2023-07-13T10:41:38;23.30;44.00
1415;DHT22;702;49.466;11.086;2023-07-13T10:44:14;23.60;44.40
1415;DHT22;702;49.466;11.086;2023-07-13T10:46:46;23.70;44.40
1415;DHT22;702;49.466;11.086;2023-07-13T10:49:16;23.80;44.40
1415;DHT22;702;49.466;11.086;2023-07-13T10:51:44;24.20;44.60
1415;DHT22;702;49.466;11.086;2023-07-13T10:54:18;24.70;44.50
1415;DHT22;702;49.466;11.086;2023-07-13T10:56:53;24.30;43.80
1415;DHT22;702;49.466;11.086;2023-07-13T10:59:35;24.70;44.00
1415;DHT22;702;49.466;11.086;2023-07-13T11:02:11;24.60;44.50
1415;DHT22;702;49.466;11.086;2023-07-13T11:04:43;24.90;44.60
1415;DHT22;702;49.466;11.086;2023-07-13T11:07:20;25.00;44.20
1415;DHT22;702;49.466;11.086;2023-07-13T11:09:53;24.80;44.20
1415;DHT22;702;49.466;11.086;2023-07-13T11:12:48;24.30;44.30
1415;DHT22;702;49.466;11.086;2023-07-13T11:15:33;24.40;44.50
1415;DHT22;702;49.466;11.086;2023-07-13T11:18:20;24.40;44.40
1415;DHT22;702;49.466;11.086;2023-07-13T11:20:50;24.40;43.50
1415;DHT22;702;49.466;11.086;2023-07-13T11:23:29;24.30;43.90
1415;DHT22;702;49.466;11.086;2023-07-13T11:25:58;24.50;44.00
1415;DHT22;702;49.466;11.086;2023-07-13T11:28:30;24.80;44.10
1415;DHT22;702;49.466;11.086;2023-07-13T11:31:12;24.80;43.90
1415;DHT22;702;49.466;11.086;2023-07-13T11:34:00;25.00;43.40
1415;DHT22;702;49.466;11.086;2023-07-13T11:36:37;25.50;43.40
1415;DHT22;702;49.466;11.086;2023-07-13T11:39:16;26.20;43.00
1415;DHT22;702;49.466;11.086;2023-07-13T11:41:48;26.00;43.00
1415;DHT22;702;49.466;11.086;2023-07-13T11:44:20;26.20;43.60
1415;DHT22;702;49.466;11.086;2023-07-13T11:46:51;26.00;43.10
1415;DHT22;702;49.466;11.086;2023-07-13T11:49:21;25.40;43.10
1415;DHT22;702;49.466;11.086;2023-07-13T11:51:51;25.10;43.50
1415;DHT22;702;49.466;11.086;2023-07-13T11:54:27;25.20;43.70
1415;DHT22;702;49.466;11.086;2023-07-13T11:56:58;25.40;44.30
1415;DHT22;702;49.466;11.086;2023-07-13T11:59:28;25.50;43.20
1415;DHT22;702;49.466;11.086;2023-07-13T12:01:58;25.40;43.00
1415;DHT22;702;49.466;11.086;2023-07-13T12:04:29;25.40;43.70
1415;DHT22;702;49.466;11.086;2023-07-13T12:07:06;25.40;43.80
1415;DHT22;702;49.466;11.086;2023-07-13T12:09:35;25.10;43.90
1415;DHT22;702;49.466;11.086;2023-07-13T12:12:08;25.00;44.10
1415;DHT22;702;49.466;11.086;2023-07-13T12:14:38;24.90;44.20
1415;DHT22;702;49.466;11.086;2023-07-13T12:17:11;24.90;44.50
1415;DHT22;702;49.466;11.086;2023-07-13T12:19:43;25.30;44.20
1415;DHT22;702;49.466;11.086;2023-07-13T12:22:14;25.50;43.70
1415;DHT22;702;49.466;11.086;2023-07-13T12:24:44;26.00;44.00
1415;DHT22;702;49.466;11.086;2023-07-13T12:27:19;26.10;43.80
1415;DHT22;702;49.466;11.086;2023-07-13T12:29:53;26.60;44.10
1415;DHT22;702;49.466;11.086;2023-07-13T12:32:25;26.80;43.10
1415;DHT22;702;49.466;11.086;2023-07-13T12:34:56;26.30;43.20
1415;DHT22;702;49.466;11.086;2023-07-13T12:37:34;26.70;43.50
1415;DHT22;702;49.466;11.086;2023-07-13T12:40:04;27.20;43.00
1415;DHT22;702;49.466;11.086;2023-07-13T12:42:38;27.00;43.30
1415;DHT22;702;49.466;11.086;2023-07-13T12:45:18;26.70;43.30
1415;DHT22;702;49.466;11.086;2023-07-13T12:47:49;26.10;43.30
1415;DHT22;702;49.466;11.086;2023-07-13T12:50:21;25.80;43.30
1415;DHT22;702;49.466;11.086;2023-07-13T12:52:53;25.90;43.60
1415;DHT22;702;49.466;11.086;2023-07-13T12:55:22;26.00;43.80
1415;DHT22;702;49.466;11.086;2023-07-13T12:57:51;25.90;43.80
1415;DHT22;702;49.466;11.086;2023-07-13T13:00:24;25.90;43.70
1415;DHT22;702;49.466;11.086;2023-07-13T13:02:56;26.20;43.60
1415;DHT22;702;49.466;11.086;2023-07-13T13:05:26;26.40;43.30
1415;DHT22;702;49.466;11.086;2023-07-13T13:07:56;26.60;42.80
1415;DHT22;702;49.466;11.086;2023-07-13T13:10:24;26.50;42.90
1415;DHT22;702;49.466;11.086;2023-07-13T13:12:52;26.70;42.90
1415;DHT22;702;49.466;11.086;2023-07-13T13:15:19;26.50;43.80
1415;DHT22;702;49.466;11.086;2023-07-13T13:17:49;26.20;44.50
1415;DHT22;702;49.466;11.086;2023-07-13T13:20:18;26.00;43.80
1415;DHT22;702;49.466;11.086;2023-07-13T13:22:47;26.10;44.00
1415;DHT22;702;49.466;11.086;2023-07-13T13:25:18;26.10;44.20
1415;DHT22;702;49.466;11.086;2023-07-13T13:27:45;25.60;44.30
1415;DHT22;702;49.466;11.086;2023-07-13T13:30:15;25.60;44.10
1415;DHT22;702;49.466;11.086;2023-07-13T13:32:47;25.80;43.80
1415;DHT22;702;49.466;11.086;2023-07-13T13:35:15;25.50;43.80
1415;DHT22;702;49.466;11.086;2023-07-13T13:37:44;25.70;43.80
1415;DHT22;702;49.466;11.086;2023-07-13T13:40:19;26.00;43.80
1415;DHT22;702;49.466;11.086;2023-07-13T13:42:48;26.20;43.30
1415;DHT22;702;49.466;11.086;2023-07-13T13:45:17;26.20;43.30
1415;DHT22;702;49.466;11.086;2023-07-13T13:47:47;25.90;43.50
1415;DHT22;702;49.466;11.086;2023-07-13T13:50:16;25.70;43.50
1415;DHT22;702;49.466;11.086;2023-07-13T13:52:44;26.10;43.50
1415;DHT22;702;49.466;11.086;2023-07-13T13:55:13;26.60;43.50
1415;DHT22;702;49.466;11.086;2023-07-13T13:57:42;27.00;43.30
1415;DHT22;702;49.466;11.086;2023-07-13T14:00:11;27.40;42.80
1415;DHT22;702;49.466;11.086;2023-07-13T14:02:40;26.90;42.90
1415;DHT22;702;49.466;11.086;2023-07-13T14:05:12;26.50;42.70
1415;DHT22;702;49.466;11.086;2023-07-13T14:07:40;26.20;43.20
1415;DHT22;702;49.466;11.086;2023-07-13T14:10:12;26.40;43.30
1415;DHT22;702;49.466;11.086;2023-07-13T14:12:43;26.40;42.90
1415;DHT22;702;49.466;11.086;2023-07-13T14:15:19;26.00;43.00
1415;DHT22;702;49.466;11.086;2023-07-13T14:17:48;26.00;43.40
1415;DHT22;702;49.466;11.086;2023-07-13T14:20:17;25.90;42.90
1415;DHT22;702;49.466;11.086;2023-07-13T14:22:45;25.90;43.60
1415;DHT22;702;49.466;11.086;2023-07-13T14:25:14;25.80;43.50
1415;DHT22;702;49.466;11.086;2023-07-13T14:27:44;25.50;43.40
1415;DHT22;702;49.466;11.086;2023-07-13T14:30:22;25.70;43.60
1415;DHT22;702;49.466;11.086;2023-07-13T14:32:49;25.90;43.20
1415;DHT22;702;49.466;11.086;2023-07-13T14:35:19;26.00;43.00
1415;DHT22;702;49.466;11.086;2023-07-13T14:37:49;26.10;42.70
1415;DHT22;702;49.466;11.086;2023-07-13T14:40:19;26.00;43.00
1415;DHT22;702;49.466;11.086;2023-07-13T14:42:51;26.10;43.00
1415;DHT22;702;49.466;11.086;2023-07-13T14:45:20;26.00;43.10
1415;DHT22;702;49.466;11.086;2023-07-13T14:47:48;26.20;43.10
1415;DHT22;702;49.466;11.086;2023-07-13T14:50:16;26.10;42.50
1415;DHT22;702;49.466;11.086;2023-07-13T14:52:46;26.30;42.40
1415;DHT22;702;49.466;11.086;2023-07-13T14:55:18;25.90;42.20
1415;DHT22;702;49.466;11.086;2023-07-13T14:57:47;25.70;42.50
1415;DHT22;702;49.466;11.086;2023-07-13T15:00:19;25.90;42.80
1415;DHT22;702;49.466;11.086;2023-07-13T15:02:51;26.20;42.60
1415;DHT22;702;49.466;11.086;2023-07-13T15:05:22;26.00;42.20
1415;DHT22;702;49.466;11.086;2023-07-13T15:07:52;25.90;42.50
1415;DHT22;702;49.466;11.086;2023-07-13T15:10:21;25.60;42.70
1415;DHT22;702;49.466;11.086;2023-07-13T15:12:51;25.50;42.80
1415;DHT22;702;49.466;11.086;2023-07-13T15:15:20;25.30;43.00
1415;DHT22;702;49.466;11.086;2023-07-13T15:17:48;25.60;43.00
1415;DHT22;702;49.466;11.086;2023-07-13T15:20:19;25.80;42.70
1415;DHT22;702;49.466;11.086;2023-07-13T15:22:49;26.10;42.70
1415;DHT22;702;49.466;11.086;2023-07-13T15:25:19;25.90;42.30
1415;DHT22;702;49.466;11.086;2023-07-13T15:27:49;25.70;42.60
1415;DHT22;702;49.466;11.086;2023-07-13T15:30:17;26.00;42.80
1415;DHT22;702;49.466;11.086;2023-07-13T15:32:46;26.30;42.40
1415;DHT22;702;49.466;11.086;2023-07-13T15:35:15;26.00;42.00
1415;DHT22;702;49.466;11.086;2023-07-13T15:37:44;25.50;41.90
1415;DHT22;702;49.466;11.086;2023-07-13T15:40:12;25.70;42.30
1415;DHT22;702;49.466;11.086;2023-07-13T15:42:41;26.20;42.40
1415;DHT22;702;49.466;11.086;2023-07-13T15:45:16;26.00;42.20
1415;DHT22;702;49.466;11.086;2023-07-13T15:47:49;25.40;42.50
1415;DHT22;702;49.466;11.086;2023-07-13T15:50:18;25.10;42.90
1415;DHT22;702;49.466;11.086;2023-07-13T15:52:49;25.10;43.30
1415;DHT22;702;49.466;11.086;2023-07-13T15:55:19;25.10;42.90
1415;DHT22;702;49.466;11.086;2023-07-13T15:57:48;25.20;42.70
1415;DHT22;702;49.466;11.086;2023-07-13T16:00:21;25.30;43.00
1415;DHT22;702;49.466;11.086;2023-07-13T16:02:52;25.60;42.80
1415;DHT22;702;49.466;11.086;2023-07-13T16:05:20;25.70;43.10
1415;DHT22;702;49.466;11.086;2023-07-13T16:07:50;25.80;43.00
1415;DHT22;702;49.466;11.086;2023-07-13T16:10:20;25.90;42.90
1415;DHT22;702;49.466;11.086;2023-07-13T16:12:49;25.50;42.90
1415;DHT22;702;49.466;11.086;2023-07-13T16:15:18;25.30;43.10
1415;DHT22;702;49.466;11.086;2023-07-13T16:17:47;25.90;43.00
1415;DHT22;702;49.466;11.086;2023-07-13T16:20:17;26.40;42.80
1415;DHT22;702;49.466;11.086;2023-07-13T16:22:48;26.50;42.30